sensor_id;sensor_type;location;lat;lon;timestamp;temperature;humidity
41668;DHT22;27356;50.920;5.350;2022-11-20T07:13:49;4.90;99.90
41668;DHT22;27356;50.920;5.350;2022-11-20T07:16:15;4.80;99.90
41668;DHT22;27356;50.920;5.350;2022-11-20T07:18:41;4.90;99.90
41668;DHT22;27356;50.920;5.350;2022-11-20T07:21:07;4.90;99.90
41668;DHT22;27356;50.920;5.350;2022-11-20T07:23:33;4.80;99.90
41668;DHT22;27356;50.920;5.350;2022-11-20T07:26:06;4.90;99.90
41668;DHT22;27356;50.920;5.350;2022-11-20T07:28:32;4.90;99.90
41668;DHT22;27356;50.920;5.350;2022-11-20T07:30:58;4.50;99.90
41668;DHT22;27356;50.920;5.350;2022-11-20T07:33:23;4.50;99.90
41668;DHT22;27356;50.920;5.350;2022-11-20T07:35:49;4.50;99.90
41668;DHT22;27356;50.920;5.350;2022-11-20T07:38:14;4.70;99.90
41668;DHT22;27356;50.920;5.350;2022-11-20T07:40:40;4.80;99.90
41668;DHT22;27356;50.920;5.350;2022-11-20T07:43:05;4.90;99.90
41668;DHT22;27356;50.920;5.350;2022-11-20T07:45:31;4.90;99.90
41668;DHT22;27356;50.920;5.350;2022-11-20T07:47:57;5.00;99.90
41668;DHT22;27356;50.920;5.350;2022-11-20T07:50:22;4.90;99.90
41668;DHT22;27356;50.920;5.350;2022-11-20T07:52:48;5.10;99.90
41668;DHT22;27356;50.920;5.350;2022-11-20T07:55:13;5.00;99.90
41668;DHT22;27356;50.920;5.350;2022-11-20T07:57:39;5.20;99.90
41668;DHT22;27356;50.920;5.350;2022-11-20T08:00:05;5.50;99.90
41668;DHT22;27356;50.920;5.350;2022-11-20T08:02:32;5.50;99.90
41668;DHT22;27356;50.920;5.350;2022-11-20T08:04:57;5.70;99.90
41668;DHT22;27356;50.920;5.350;2022-11-20T08:07:23;5.80;99.90
41668;DHT22;27356;50.920;5.350;2022-11-20T08:09:48;5.70;99.90
41668;DHT22;27356;50.920;5.350;2022-11-20T08:12:18;5.70;99.90
41668;DHT22;27356;50.920;5.350;2022-11-20T08:15:02;5.70;99.90
41668;DHT22;27356;50.920;5.350;2022-11-20T08:17:27;5.80;99.90
41668;DHT22;27356;50.920;5.350;2022-11-20T08:19:53;5.80;99.90
41668;DHT22;27356;50.920;5.350;2022-11-20T08:22:18;5.90;99.90
41668;DHT22;27356;50.920;5.350;2022-11-20T08:24:45;6.00;99.90
41668;DHT22;27356;50.920;5.350;2022-11-20T08:27:11;6.20;99.90
41668;DHT22;27356;50.920;5.350;2022-11-20T08:29:36;6.20;99.90
41668;DHT22;27356;50.920;5.350;2022-11-20T08:32:02;6.20;99.90
41668;DHT22;27356;50.920;5.350;2022-11-20T08:34:27;6.30;99.90
41668;DHT22;27356;50.920;5.350;2022-11-20T08:36:53;6.10;99.90
41668;DHT22;27356;50.920;5.350;2022-11-20T08:39:19;6.10;99.90
41668;DHT22;27356;50.920;5.350;2022-11-20T08:41:44;6.00;99.90
41668;DHT22;27356;50.920;5.350;2022-11-20T08:44:10;6.00;99.90
41668;DHT22;27356;50.920;5.350;2022-11-20T08:46:36;6.10;99.90
41668;DHT22;27356;50.920;5.350;2022-11-20T08:49:03;6.10;99.90
41668;DHT22;27356;50.920;5.350;2022-11-20T08:51:29;6.20;99.90
41668;DHT22;27356;50.920;5.350;2022-11-20T08:53:54;6.10;99.90
41668;DHT22;27356;50.920;5.350;2022-11-20T08:56:20;6.20;99.90
41668;DHT22;27356;50.920;5.350;2022-11-20T08:58:45;6.30;99.90
41668;DHT22;27356;50.920;5.350;2022-11-20T09:01:11;6.40;99.90
41668;DHT22;27356;50.920;5.350;2022-11-20T09:03:36;6.40;99.90
41668;DHT22;27356;50.920;5.350;2022-11-20T09:06:03;6.50;99.90
41668;DHT22;27356;50.920;5.350;2022-11-20T09:08:29;6.60;99.90
41668;DHT22;27356;50.920;5.350;2022-11-20T09:10:55;6.70;99.90
41668;DHT22;27356;50.920;5.350;2022-11-20T09:13:21;6.80;99.90
41668;DHT22;27356;50.920;5.350;2022-11-20T09:15:47;6.90;99.90
41668;DHT22;27356;50.920;5.350;2022-11-20T09:18:17;6.80;99.90
41668;DHT22;27356;50.920;5.350;2022-11-20T09:20:42;6.90;99.90
41668;DHT22;27356;50.920;5.350;2022-11-20T09:23:08;6.90;99.90
41668;DHT22;27356;50.920;5.350;2022-11-20T09:25:34;6.80;99.90
41668;DHT22;27356;50.920;5.350;2022-11-20T09:27:59;6.90;99.90
41668;DHT22;27356;50.920;5.350;2022-11-20T09:30:25;7.10;99.90
41668;DHT22;27356;50.920;5.350;2022-11-20T09:32:51;7.00;99.90
41668;DHT22;27356;50.920;5.350;2022-11-20T09:35:16;7.10;99.90
41668;DHT22;27356;50.920;5.350;2022-11-20T09:37:43;7.20;99.90
41668;DHT22;27356;50.920;5.350;2022-11-20T09:40:22;7.30;99.90
41668;DHT22;27356;50.920;5.350;2022-11-20T09:42:52;7.50;99.90
41668;DHT22;27356;50.920;5.350;2022-11-20T09:50:54;7.60;99.90
41668;DHT22;27356;50.920;5.350;2022-11-20T09:55:46;7.70;99.90
41668;DHT22;27356;50.920;5.350;2022-11-20T09:58:21;7.10;99.90
41668;DHT22;27356;50.920;5.350;2022-11-20T10:00:50;7.40;99.90
41668;DHT22;27356;50.920;5.350;2022-11-20T10:03:22;7.30;99.90
41668;DHT22;27356;50.920;5.350;2022-11-20T10:05:53;7.00;99.90
41668;DHT22;27356;50.920;5.350;2022-11-20T10:08:23;7.00;99.90
41668;DHT22;27356;50.920;5.350;2022-11-20T10:10:50;6.80;99.90
41668;DHT22;27356;50.920;5.350;2022-11-20T10:13:30;6.80;99.90
41668;DHT22;27356;50.920;5.350;2022-11-20T10:23:28;6.70;99.90
41668;DHT22;27356;50.920;5.350;2022-11-20T10:26:11;6.70;99.90
41668;DHT22;27356;50.920;5.350;2022-11-20T10:31:27;7.00;99.90
41668;DHT22;27356;50.920;5.350;2022-11-20T10:33:54;7.10;99.90
41668;DHT22;27356;50.920;5.350;2022-11-20T10:36:23;7.10;99.90
41668;DHT22;27356;50.920;5.350;2022-11-20T10:38:59;7.20;99.90
41668;DHT22;27356;50.920;5.350;2022-11-20T10:41:28;7.00;99.90
41668;DHT22;27356;50.920;5.350;2022-11-20T10:44:05;6.90;99.90
41668;DHT22;27356;50.920;5.350;2022-11-20T10:46:40;7.20;99.90
41668;DHT22;27356;50.920;5.350;2022-11-20T10:49:15;7.20;99.90
41668;DHT22;27356;50.920;5.350;2022-11-20T10:52:00;7.40;99.90
41668;DHT22;27356;50.920;5.350;2022-11-20T10:54:36;7.30;99.90
41668;DHT22;27356;50.920;5.350;2022-11-20T10:57:18;7.50;99.90
41668;DHT22;27356;50.920;5.350;2022-11-20T11:00:03;7.50;99.90
41668;DHT22;27356;50.920;5.350;2022-11-20T11:02:39;7.30;99.90
41668;DHT22;27356;50.920;5.350;2022-11-20T11:05:22;7.30;99.90
41668;DHT22;27356;50.920;5.350;2022-11-20T11:07:50;7.40;99.90
41668;DHT22;27356;50.920;5.350;2022-11-20T11:10:18;7.50;99.90
41668;DHT22;27356;50.920;5.350;2022-11-20T11:12:45;7.70;99.90
41668;DHT22;27356;50.920;5.350;2022-11-20T11:15:14;8.00;99.90
41668;DHT22;27356;50.920;5.350;2022-11-20T11:17:46;8.00;99.90
41668;DHT22;27356;50.920;5.350;2022-11-20T11:20:19;7.90;99.90
41668;DHT22;27356;50.920;5.350;2022-11-20T11:22:49;7.90;99.90
41668;DHT22;27356;50.920;5.350;2022-11-20T11:25:55;8.00;99.90
41668;DHT22;27356;50.920;5.350;2022-11-20T11:30:43;8.00;99.90
41668;DHT22;27356;50.920;5.350;2022-11-20T11:33:10;8.10;99.90
41668;DHT22;27356;50.920;5.350;2022-11-20T11:35:47;8.00;99.90
41668;DHT22;27356;50.920;5.350;2022-11-20T11:38:18;7.90;99.90
41668;DHT22;27356;50.920;5.350;2022-11-20T11:40:44;8.20;99.90
41668;DHT22;27356;50.920;5.350;2022-11-20T11:48:57;8.70;99.90
41668;DHT22;27356;50.920;5.350;2022-11-20T11:51:24;8.90;99.90
41668;DHT22;27356;50.920;5.350;2022-11-20T11:53:51;9.00;99.90
41668;DHT22;27356;50.920;5.350;2022-11-20T11:56:17;8.80;99.90
41668;DHT22;27356;50.920;5.350;2022-11-20T11:58:44;9.00;99.90
41668;DHT22;27356;50.920;5.350;2022-11-20T12:01:32;8.90;99.90
41668;DHT22;27356;50.920;5.350;2022-11-20T12:04:02;9.10;99.90
41668;DHT22;27356;50.920;5.350;2022-11-20T12:06:29;9.20;99.90
41668;DHT22;27356;50.920;5.350;2022-11-20T12:09:02;9.40;99.90
41668;DHT22;27356;50.920;5.350;2022-11-20T12:16:27;9.90;99.90
41668;DHT22;27356;50.920;5.350;2022-11-20T12:18:53;9.80;99.90
41668;DHT22;27356;50.920;5.350;2022-11-20T12:21:20;9.80;99.90
41668;DHT22;27356;50.920;5.350;2022-11-20T12:29:05;10.40;99.90
41668;DHT22;27356;50.920;5.350;2022-11-20T12:31:47;10.60;99.90
41668;DHT22;27356;50.920;5.350;2022-11-20T12:36:49;10.60;99.90
41668;DHT22;27356;50.920;5.350;2022-11-20T12:39:40;10.60;99.90
41668;DHT22;27356;50.920;5.350;2022-11-20T12:50:02;10.80;99.90
41668;DHT22;27356;50.920;5.350;2022-11-20T12:52:47;10.90;99.90
41668;DHT22;27356;50.920;5.350;2022-11-20T13:00:31;10.70;99.90
41668;DHT22;27356;50.920;5.350;2022-11-20T13:05:34;10.80;99.90
41668;DHT22;27356;50.920;5.350;2022-11-20T13:08:02;10.80;99.90
41668;DHT22;27356;50.920;5.350;2022-11-20T13:10:36;10.90;99.90
41668;DHT22;27356;50.920;5.350;2022-11-20T13:13:08;10.70;99.90
41668;DHT22;27356;50.920;5.350;2022-11-20T13:18:01;10.70;99.90
41668;DHT22;27356;50.920;5.350;2022-11-20T13:20:28;10.60;99.90
41668;DHT22;27356;50.920;5.350;2022-11-20T13:22:55;10.30;99.90
41668;DHT22;27356;50.920;5.350;2022-11-20T13:25:29;10.20;99.90
41668;DHT22;27356;50.920;5.350;2022-11-20T13:27:58;10.20;99.90
41668;DHT22;27356;50.920;5.350;2022-11-20T13:30:25;9.80;99.90
41668;DHT22;27356;50.920;5.350;2022-11-20T13:32:52;9.60;99.90
41668;DHT22;27356;50.920;5.350;2022-11-20T13:35:25;9.60;99.90
41668;DHT22;27356;50.920;5.350;2022-11-20T13:40:27;9.50;99.90
41668;DHT22;27356;50.920;5.350;2022-11-20T13:43:01;9.30;99.90
41668;DHT22;27356;50.920;5.350;2022-11-20T13:45:28;9.30;99.90
41668;DHT22;27356;50.920;5.350;2022-11-20T13:47:54;9.20;99.90
41668;DHT22;27356;50.920;5.350;2022-11-20T13:53:00;9.10;99.90
41668;DHT22;27356;50.920;5.350;2022-11-20T13:58:22;9.00;99.90
41668;DHT22;27356;50.920;5.350;2022-11-20T14:00:56;8.90;99.90
41668;DHT22;27356;50.920;5.350;2022-11-20T14:03:22;8.90;99.90
41668;DHT22;27356;50.920;5.350;2022-11-20T14:05:55;8.70;99.90
41668;DHT22;27356;50.920;5.350;2022-11-20T14:08:27;8.60;99.90
41668;DHT22;27356;50.920;5.350;2022-11-20T14:11:05;8.70;99.90
41668;DHT22;27356;50.920;5.350;2022-11-20T14:13:31;8.70;99.90
41668;DHT22;27356;50.920;5.350;2022-11-20T14:15:57;8.50;99.90
41668;DHT22;27356;50.920;5.350;2022-11-20T14:18:22;8.50;99.90
41668;DHT22;27356;50.920;5.350;2022-11-20T14:20:48;8.40;99.90
41668;DHT22;27356;50.920;5.350;2022-11-20T14:23:22;8.40;99.90
41668;DHT22;27356;50.920;5.350;2022-11-20T14:25:48;8.40;99.90
41668;DHT22;27356;50.920;5.350;2022-11-20T14:28:19;8.40;99.90
41668;DHT22;27356;50.920;5.350;2022-11-20T14:30:47;8.50;99.90
41668;DHT22;27356;50.920;5.350;2022-11-20T14:33:13;8.50;99.90
41668;DHT22;27356;50.920;5.350;2022-11-20T14:35:49;8.50;99.90
41668;DHT22;27356;50.920;5.350;2022-11-20T14:38:16;8.30;99.90
41668;DHT22;27356;50.920;5.350;2022-11-20T14:40:42;8.40;99.90
41668;DHT22;27356;50.920;5.350;2022-11-20T14:43:19;8.40;99.90
41668;DHT22;27356;50.920;5.350;2022-11-20T14:45:50;8.40;99.90
41668;DHT22;27356;50.920;5.350;2022-11-20T14:48:18;8.40;99.90
41668;DHT22;27356;50.920;5.350;2022-11-20T14:50:44;8.40;99.90
41668;DHT22;27356;50.920;5.350;2022-11-20T14:53:09;8.40;99.90
41668;DHT22;27356;50.920;5.350;2022-11-20T14:55:38;8.30;99.90
41668;DHT22;27356;50.920;5.350;2022-11-20T15:00:29;8.40;99.90
41668;DHT22;27356;50.920;5.350;2022-11-20T15:02:55;8.30;99.90
41668;DHT22;27356;50.920;5.350;2022-11-20T15:05:25;8.30;99.90
41668;DHT22;27356;50.920;5.350;2022-11-20T15:08:05;8.20;99.90
41668;DHT22;27356;50.920;5.350;2022-11-20T15:10:31;8.20;99.90
41668;DHT22;27356;50.920;5.350;2022-11-20T15:13:00;8.20;99.90
41668;DHT22;27356;50.920;5.350;2022-11-20T15:15:29;8.10;99.90
41668;DHT22;27356;50.920;5.350;2022-11-20T15:17:55;8.20;99.90
41668;DHT22;27356;50.920;5.350;2022-11-20T15:20:21;8.30;99.90
41668;DHT22;27356;50.920;5.350;2022-11-20T15:22:49;8.20;99.90
41668;DHT22;27356;50.920;5.350;2022-11-20T15:25:15;8.30;99.90
41668;DHT22;27356;50.920;5.350;2022-11-20T15:27:41;8.30;99.90
41668;DHT22;27356;50.920;5.350;2022-11-20T15:30:15;8.20;99.90
41668;DHT22;27356;50.920;5.350;2022-11-20T15:32:42;8.10;99.90
41668;DHT22;27356;50.920;5.350;2022-11-20T15:35:07;8.20;99.90
41668;DHT22;27356;50.920;5.350;2022-11-20T15:37:33;8.10;99.90
41668;DHT22;27356;50.920;5.350;2022-11-20T15:39:59;8.20;99.90
41668;DHT22;27356;50.920;5.350;2022-11-20T15:42:24;8.20;99.90
41668;DHT22;27356;50.920;5.350;2022-11-20T15:44:50;8.20;99.90
41668;DHT22;27356;50.920;5.350;2022-11-20T15:47:15;8.30;99.90
41668;DHT22;27356;50.920;5.350;2022-11-20T15:49:42;8.30;99.90
41668;DHT22;27356;50.920;5.350;2022-11-20T15:52:09;8.30;99.90
41668;DHT22;27356;50.920;5.350;2022-11-20T15:54:35;8.30;99.90
41668;DHT22;27356;50.920;5.350;2022-11-20T15:57:00;8.40;99.90
41668;DHT22;27356;50.920;5.350;2022-11-20T15:59:28;8.40;99.90
41668;DHT22;27356;50.920;5.350;2022-11-20T16:01:53;8.40;99.90
41668;DHT22;27356;50.920;5.350;2022-11-20T16:04:19;8.30;99.90
41668;DHT22;27356;50.920;5.350;2022-11-20T16:06:44;8.30;99.90
41668;DHT22;27356;50.920;5.350;2022-11-20T16:09:10;8.30;99.90
41668;DHT22;27356;50.920;5.350;2022-11-20T16:11:35;8.30;99.90
41668;DHT22;27356;50.920;5.350;2022-11-20T16:14:02;8.20;99.90
41668;DHT22;27356;50.920;5.350;2022-11-20T16:16:47;8.20;99.90
41668;DHT22;27356;50.920;5.350;2022-11-20T16:19:13;8.20;99.90
41668;DHT22;27356;50.920;5.350;2022-11-20T16:21:51;8.30;99.90
41668;DHT22;27356;50.920;5.350;2022-11-20T16:24:46;8.30;99.90
41668;DHT22;27356;50.920;5.350;2022-11-20T16:27:15;8.30;99.90
41668;DHT22;27356;50.920;5.350;2022-11-20T16:29:45;8.40;99.90
41668;DHT22;27356;50.920;5.350;2022-11-20T16:32:10;8.30;99.90
41668;DHT22;27356;50.920;5.350;2022-11-20T16:34:37;8.40;99.90
41668;DHT22;27356;50.920;5.350;2022-11-20T16:37:03;8.30;99.90
41668;DHT22;27356;50.920;5.350;2022-11-20T16:39:29;8.30;99.90
41668;DHT22;27356;50.920;5.350;2022-11-20T16:41:57;8.40;99.90
41668;DHT22;27356;50.920;5.350;2022-11-20T16:44:23;8.40;99.90
41668;DHT22;27356;50.920;5.350;2022-11-20T16:46:48;8.30;99.90
41668;DHT22;27356;50.920;5.350;2022-11-20T16:49:16;8.40;99.90
41668;DHT22;27356;50.920;5.350;2022-11-20T16:51:42;8.40;99.90
41668;DHT22;27356;50.920;5.350;2022-11-20T16:54:08;8.40;99.90
41668;DHT22;27356;50.920;5.350;2022-11-20T16:56:34;8.50;99.90
41668;DHT22;27356;50.920;5.350;2022-11-20T16:59:03;8.40;99.90
41668;DHT22;27356;50.920;5.350;2022-11-20T17:01:28;8.40;99.90
41668;DHT22;27356;50.920;5.350;2022-11-20T17:03:58;8.40;99.90
41668;DHT22;27356;50.920;5.350;2022-11-20T17:06:25;8.50;99.90
41668;DHT22;27356;50.920;5.350;2022-11-20T17:08:52;8.50;99.90
41668;DHT22;27356;50.920;5.350;2022-11-20T17:11:18;8.40;99.90
41668;DHT22;27356;50.920;5.350;2022-11-20T17:13:44;8.60;99.90
41668;DHT22;27356;50.920;5.350;2022-11-20T17:16:17;8.50;99.90
41668;DHT22;27356;50.920;5.350;2022-11-20T17:18:43;8.40;99.90
41668;DHT22;27356;50.920;5.350;2022-11-20T17:21:08;8.50;99.90
41668;DHT22;27356;50.920;5.350;2022-11-20T17:23:38;8.40;99.90
41668;DHT22;27356;50.920;5.350;2022-11-20T17:26:05;8.30;99.90
41668;DHT22;27356;50.920;5.350;2022-11-20T17:28:34;8.20;99.90
41668;DHT22;27356;50.920;5.350;2022-11-20T17:31:04;8.10;99.90
41668;DHT22;27356;50.920;5.350;2022-11-20T17:33:30;8.10;99.90
41668;DHT22;27356;50.920;5.350;2022-11-20T17:35:56;8.00;99.90
41668;DHT22;27356;50.920;5.350;2022-11-20T17:38:22;8.00;99.90
41668;DHT22;27356;50.920;5.350;2022-11-20T17:40:47;7.90;99.90
41668;DHT22;27356;50.920;5.350;2022-11-20T17:43:13;7.90;99.90
41668;DHT22;27356;50.920;5.350;2022-11-20T17:45:38;7.90;99.90
41668;DHT22;27356;50.920;5.350;2022-11-20T17:48:04;7.90;99.90
41668;DHT22;27356;50.920;5.350;2022-11-20T17:50:30;7.80;99.90
41668;DHT22;27356;50.920;5.350;2022-11-20T17:52:55;7.70;99.90
41668;DHT22;27356;50.920;5.350;2022-11-20T17:55:21;7.80;99.90
41668;DHT22;27356;50.920;5.350;2022-11-20T17:57:46;7.80;99.90
41668;DHT22;27356;50.920;5.350;2022-11-20T18:00:20;8.00;99.90
41668;DHT22;27356;50.920;5.350;2022-11-20T18:02:46;7.90;99.90
41668;DHT22;27356;50.920;5.350;2022-11-20T18:05:12;7.90;99.90
41668;DHT22;27356;50.920;5.350;2022-11-20T18:07:37;8.00;99.90
41668;DHT22;27356;50.920;5.350;2022-11-20T18:10:04;8.00;99.90
41668;DHT22;27356;50.920;5.350;2022-11-20T18:12:29;8.20;99.90
41668;DHT22;27356;50.920;5.350;2022-11-20T18:14:55;8.10;99.90
41668;DHT22;27356;50.920;5.350;2022-11-20T18:17:21;8.20;99.90
41668;DHT22;27356;50.920;5.350;2022-11-20T18:19:46;8.20;99.90
41668;DHT22;27356;50.920;5.350;2022-11-20T18:22:13;8.20;99.90
41668;DHT22;27356;50.920;5.350;2022-11-20T18:24:38;8.20;99.90
41668;DHT22;27356;50.920;5.350;2022-11-20T18:27:05;8.10;99.90
41668;DHT22;27356;50.920;5.350;2022-11-20T18:29:31;8.00;99.90
41668;DHT22;27356;50.920;5.350;2022-11-20T18:31:57;7.90;99.90
41668;DHT22;27356;50.920;5.350;2022-11-20T18:34:23;8.00;99.90
41668;DHT22;27356;50.920;5.350;2022-11-20T18:36:49;7.80;99.90
41668;DHT22;27356;50.920;5.350;2022-11-20T18:39:15;7.70;99.90
41668;DHT22;27356;50.920;5.350;2022-11-20T18:41:40;7.70;99.90
41668;DHT22;27356;50.920;5.350;2022-11-20T18:44:25;7.70;99.90
41668;DHT22;27356;50.920;5.350;2022-11-20T18:47:11;7.60;99.90
41668;DHT22;27356;50.920;5.350;2022-11-20T18:49:36;7.60;99.90
41668;DHT22;27356;50.920;5.350;2022-11-20T18:52:02;7.50;99.90
41668;DHT22;27356;50.920;5.350;2022-11-20T18:54:28;7.40;99.90
41668;DHT22;27356;50.920;5.350;2022-11-20T18:56:54;7.30;99.90
41668;DHT22;27356;50.920;5.350;2022-11-20T18:59:19;7.20;99.90
41668;DHT22;27356;50.920;5.350;2022-11-20T19:01:48;7.20;99.90
41668;DHT22;27356;50.920;5.350;2022-11-20T19:04:14;7.30;99.90
41668;DHT22;27356;50.920;5.350;2022-11-20T19:06:41;7.20;99.90
41668;DHT22;27356;50.920;5.350;2022-11-20T19:09:07;7.10;99.90
41668;DHT22;27356;50.920;5.350;2022-11-20T19:11:34;7.00;99.90
41668;DHT22;27356;50.920;5.350;2022-11-20T19:13:59;7.00;99.90
41668;DHT22;27356;50.920;5.350;2022-11-20T19:16:25;7.00;99.90
41668;DHT22;27356;50.920;5.350;2022-11-20T19:18:51;7.00;99.90
41668;DHT22;27356;50.920;5.350;2022-11-20T19:21:18;7.00;99.90
41668;DHT22;27356;50.920;5.350;2022-11-20T19:23:47;7.10;99.90
41668;DHT22;27356;50.920;5.350;2022-11-20T19:26:13;7.10;99.90
41668;DHT22;27356;50.920;5.350;2022-11-20T19:28:39;7.20;99.90
41668;DHT22;27356;50.920;5.350;2022-11-20T19:31:06;7.10;99.90
41668;DHT22;27356;50.920;5.350;2022-11-20T19:33:31;7.10;99.90
41668;DHT22;27356;50.920;5.350;2022-11-20T19:36:07;7.00;99.90
41668;DHT22;27356;50.920;5.350;2022-11-20T19:38:33;7.00;99.90
41668;DHT22;27356;50.920;5.350;2022-11-20T19:40:58;6.90;99.90
41668;DHT22;27356;50.920;5.350;2022-11-20T19:43:24;6.90;99.90
41668;DHT22;27356;50.920;5.350;2022-11-20T19:45:49;6.80;99.90
41668;DHT22;27356;50.920;5.350;2022-11-20T19:48:15;6.80;99.90
41668;DHT22;27356;50.920;5.350;2022-11-20T19:50:40;6.90;99.90
41668;DHT22;27356;50.920;5.350;2022-11-20T19:53:06;6.90;99.90
41668;DHT22;27356;50.920;5.350;2022-11-20T19:55:32;7.10;99.90
41668;DHT22;27356;50.920;5.350;2022-11-20T19:57:57;7.10;99.90
41668;DHT22;27356;50.920;5.350;2022-11-20T20:00:23;7.00;99.90
41668;DHT22;27356;50.920;5.350;2022-11-20T20:02:48;7.00;99.90
41668;DHT22;27356;50.920;5.350;2022-11-20T20:05:14;7.00;99.90
41668;DHT22;27356;50.920;5.350;2022-11-20T20:07:40;7.00;99.90
41668;DHT22;27356;50.920;5.350;2022-11-20T20:10:05;7.10;99.90
41668;DHT22;27356;50.920;5.350;2022-11-20T20:12:31;7.10;99.90
41668;DHT22;27356;50.920;5.350;2022-11-20T20:14:56;7.10;99.90
41668;DHT22;27356;50.920;5.350;2022-11-20T20:17:22;7.00;99.90
41668;DHT22;27356;50.920;5.350;2022-11-20T20:19:47;7.00;99.90
41668;DHT22;27356;50.920;5.350;2022-11-20T20:22:13;6.80;99.90
41668;DHT22;27356;50.920;5.350;2022-11-20T20:24:38;6.90;99.90
41668;DHT22;27356;50.920;5.350;2022-11-20T20:27:04;6.90;99.90
41668;DHT22;27356;50.920;5.350;2022-11-20T20:29:29;6.90;99.90
41668;DHT22;27356;50.920;5.350;2022-11-20T20:31:55;6.80;99.90
41668;DHT22;27356;50.920;5.350;2022-11-20T20:34:21;6.90;99.90
41668;DHT22;27356;50.920;5.350;2022-11-20T20:36:47;6.90;99.90
41668;DHT22;27356;50.920;5.350;2022-11-20T20:39:12;6.80;99.90
41668;DHT22;27356;50.920;5.350;2022-11-20T20:41:38;6.90;99.90
41668;DHT22;27356;50.920;5.350;2022-11-20T20:44:04;6.80;99.90
41668;DHT22;27356;50.920;5.350;2022-11-20T20:46:50;6.80;99.90
41668;DHT22;27356;50.920;5.350;2022-11-20T20:49:15;6.80;99.90
41668;DHT22;27356;50.920;5.350;2022-11-20T20:51:41;6.70;99.90
41668;DHT22;27356;50.920;5.350;2022-11-20T20:54:06;6.50;99.90
41668;DHT22;27356;50.920;5.350;2022-11-20T20:56:32;6.60;99.90
41668;DHT22;27356;50.920;5.350;2022-11-20T20:58:58;6.60;99.90
41668;DHT22;27356;50.920;5.350;2022-11-20T21:01:23;6.70;99.90
41668;DHT22;27356;50.920;5.350;2022-11-20T21:03:52;6.60;99.90
41668;DHT22;27356;50.920;5.350;2022-11-20T21:06:18;6.70;99.90
41668;DHT22;27356;50.920;5.350;2022-11-20T21:08:44;6.80;99.90
41668;DHT22;27356;50.920;5.350;2022-11-20T21:11:14;6.80;99.90
41668;DHT22;27356;50.920;5.350;2022-11-20T21:13:40;7.00;99.90
41668;DHT22;27356;50.920;5.350;2022-11-20T21:16:07;7.00;99.90
41668;DHT22;27356;50.920;5.350;2022-11-20T21:18:32;6.90;99.90
41668;DHT22;27356;50.920;5.350;2022-11-20T21:20:58;6.90;99.90
41668;DHT22;27356;50.920;5.350;2022-11-20T21:23:46;7.00;99.90
41668;DHT22;27356;50.920;5.350;2022-11-20T21:26:12;7.10;99.90
41668;DHT22;27356;50.920;5.350;2022-11-20T21:28:38;7.00;99.90
41668;DHT22;27356;50.920;5.350;2022-11-20T21:31:05;7.10;99.90
41668;DHT22;27356;50.920;5.350;2022-11-20T21:33:44;6.90;99.90
41668;DHT22;27356;50.920;5.350;2022-11-20T21:36:10;6.90;99.90
41668;DHT22;27356;50.920;5.350;2022-11-20T21:38:36;6.80;99.90
41668;DHT22;27356;50.920;5.350;2022-11-20T21:41:02;6.70;99.90
41668;DHT22;27356;50.920;5.350;2022-11-20T21:43:28;6.80;99.90
41668;DHT22;27356;50.920;5.350;2022-11-20T21:45:58;6.70;99.90
41668;DHT22;27356;50.920;5.350;2022-11-20T21:48:26;6.70;99.90
41668;DHT22;27356;50.920;5.350;2022-11-20T21:50:52;6.80;99.90
41668;DHT22;27356;50.920;5.350;2022-11-20T21:53:17;6.80;99.90
41668;DHT22;27356;50.920;5.350;2022-11-20T21:55:43;6.80;99.90
